createdAt,value
2018-05-25T00:02:03.744Z,14.63
2018-05-25T00:04:31.088Z,14.97
2018-05-25T00:06:58.359Z,18.10
2018-05-25T00:09:25.641Z,14.70
2018-05-25T00:11:52.907Z,15.33
2018-05-25T00:14:20.175Z,18.87
2018-05-25T00:16:47.556Z,13.03
2018-05-25T00:19:15.628Z,14.80
2018-05-25T00:21:42.915Z,16.60
2018-05-25T00:24:11.044Z,17.67
2018-05-25T00:26:38.334Z,17.50
2018-05-25T00:29:05.603Z,18.43
2018-05-25T00:31:33.005Z,19.17
2018-05-25T00:34:00.379Z,19.00
2018-05-25T00:36:27.768Z,17.60
2018-05-25T00:38:55.091Z,17.33
2018-05-25T00:41:22.446Z,20.77
2018-05-25T00:43:49.735Z,18.50
2018-05-25T00:46:17.019Z,15.90
2018-05-25T00:48:44.279Z,18.27
2018-05-25T00:51:11.572Z,22.03
2018-05-25T00:53:38.831Z,17.27
2018-05-25T00:56:06.126Z,18.13
2018-05-25T00:58:33.405Z,20.83
2018-05-25T01:01:00.674Z,21.40
2018-05-25T01:03:27.962Z,25.70
2018-05-25T01:05:55.255Z,21.47
2018-05-25T01:08:22.535Z,23.63
2018-05-25T01:10:49.834Z,19.90
2018-05-25T01:13:17.100Z,21.30
2018-05-25T01:15:44.399Z,24.10
2018-05-25T01:18:11.699Z,19.47
2018-05-25T01:20:39.006Z,21.97
2018-05-25T01:23:06.280Z,21.30
2018-05-25T01:25:33.630Z,18.63
2018-05-25T01:28:00.892Z,18.23
2018-05-25T01:30:28.199Z,21.33
2018-05-25T01:32:55.484Z,20.17
2018-05-25T01:35:22.754Z,17.20
2018-05-25T01:37:50.048Z,19.63
2018-05-25T01:40:17.322Z,16.90
2018-05-25T01:42:44.589Z,17.47
2018-05-25T01:45:11.885Z,20.90
2018-05-25T01:47:39.147Z,22.73
2018-05-25T01:50:06.445Z,17.40
2018-05-25T01:52:33.731Z,15.10
2018-05-25T01:55:01.002Z,14.77
2018-05-25T01:57:28.291Z,16.80
2018-05-25T01:59:55.567Z,13.67
2018-05-25T02:02:22.866Z,15.97
2018-05-25T02:04:50.140Z,19.17
2018-05-25T02:07:17.450Z,14.73
2018-05-25T02:09:44.730Z,16.93
2018-05-25T02:12:12.003Z,13.60
2018-05-25T02:14:39.287Z,14.07
2018-05-25T02:17:06.553Z,14.83
2018-05-25T02:19:33.840Z,19.43
2018-05-25T02:22:01.104Z,22.60
2018-05-25T02:24:28.403Z,12.47
2018-05-25T02:26:55.663Z,13.77
2018-05-25T02:29:23.026Z,13.93
2018-05-25T02:31:50.315Z,14.10
2018-05-25T02:34:17.575Z,15.57
2018-05-25T02:36:44.867Z,15.00
2018-05-25T02:39:12.139Z,14.60
2018-05-25T02:41:39.494Z,13.00
2018-05-25T02:44:06.764Z,13.37
2018-05-25T02:46:34.033Z,14.57
2018-05-25T02:49:01.319Z,16.57
2018-05-25T02:51:28.578Z,14.13
2018-05-25T02:53:55.976Z,19.13
2018-05-25T02:56:23.235Z,19.10
2018-05-25T02:58:50.544Z,24.97
2018-05-25T03:01:17.802Z,20.40
2018-05-25T03:03:45.087Z,17.93
2018-05-25T03:06:12.355Z,21.30
2018-05-25T03:08:39.655Z,18.40
2018-05-25T03:11:06.912Z,20.77
2018-05-25T03:13:34.175Z,21.33
2018-05-25T03:16:01.469Z,26.40
2018-05-25T03:18:28.816Z,23.30
2018-05-25T03:20:56.103Z,20.20
2018-05-25T03:23:23.373Z,19.57
2018-05-25T03:25:50.659Z,37.60
2018-05-25T03:28:17.952Z,23.47
2018-05-25T03:30:45.260Z,40.87
2018-05-25T03:33:12.501Z,32.10
2018-05-25T03:35:39.786Z,40.27
2018-05-25T03:38:07.060Z,255.33
2018-05-25T03:40:34.352Z,246.40
2018-05-25T03:43:01.644Z,37.40
2018-05-25T03:45:29.004Z,45.43
2018-05-25T03:47:56.367Z,24.60
2018-05-25T03:50:23.630Z,45.77
2018-05-25T03:52:50.977Z,30.07
2018-05-25T03:55:18.245Z,36.60
2018-05-25T03:57:45.540Z,27.90
2018-05-25T04:00:18.645Z,21.43
2018-05-25T04:02:46.034Z,35.87
2018-05-25T04:05:13.374Z,23.90
2018-05-25T04:07:40.672Z,23.73
2018-05-25T04:10:07.933Z,23.00
2018-05-25T04:12:35.251Z,21.37
2018-05-25T04:15:02.507Z,23.93
2018-05-25T04:17:29.798Z,24.40
2018-05-25T04:19:57.083Z,19.73
2018-05-25T04:22:24.346Z,19.57
2018-05-25T04:24:51.634Z,18.30
2018-05-25T04:27:18.975Z,18.97
2018-05-25T04:29:46.272Z,24.13
2018-05-25T04:32:13.537Z,20.53
2018-05-25T04:34:40.804Z,20.90
2018-05-25T04:37:08.091Z,25.23
2018-05-25T04:39:35.350Z,32.83
2018-05-25T04:42:02.648Z,23.23
2018-05-25T04:44:29.914Z,70.97
2018-05-25T04:46:57.303Z,21.20
2018-05-25T04:49:24.567Z,24.00
2018-05-25T04:51:51.851Z,33.87
2018-05-25T04:54:19.119Z,35.07
2018-05-25T04:56:46.414Z,25.07
2018-05-25T04:59:14.640Z,47.07
2018-05-25T05:01:41.953Z,26.40
2018-05-25T05:04:09.223Z,25.73
2018-05-25T05:06:36.508Z,26.30
2018-05-25T05:09:03.801Z,23.43
2018-05-25T05:11:31.059Z,21.63
2018-05-25T05:13:58.425Z,20.50
2018-05-25T05:16:25.688Z,21.97
2018-05-25T05:18:52.975Z,23.07
2018-05-25T05:21:20.401Z,22.37
2018-05-25T05:23:47.660Z,23.60
2018-05-25T05:26:14.996Z,23.23
2018-05-25T05:28:42.288Z,24.40
2018-05-25T05:31:09.567Z,34.60
2018-05-25T05:33:36.853Z,31.10
2018-05-25T05:36:04.119Z,26.30
2018-05-25T05:38:31.463Z,24.70
2018-05-25T05:40:58.839Z,21.53
2018-05-25T05:43:26.087Z,25.83
2018-05-25T05:45:53.367Z,19.37
2018-05-25T05:48:20.632Z,16.30
2018-05-25T05:50:47.926Z,17.97
2018-05-25T05:53:15.235Z,16.13
2018-05-25T05:55:42.495Z,16.10
2018-05-25T05:58:09.812Z,17.93
2018-05-25T06:00:37.103Z,19.53
2018-05-25T06:03:04.385Z,15.87
2018-05-25T06:05:31.670Z,17.70
2018-05-25T06:07:58.959Z,19.47
2018-05-25T06:10:26.224Z,21.53
2018-05-25T06:12:53.527Z,22.97
2018-05-25T06:15:20.819Z,25.37
2018-05-25T06:17:48.095Z,24.57
2018-05-25T06:20:15.357Z,21.50
2018-05-25T06:22:42.654Z,19.73
2018-05-25T06:25:09.999Z,21.80
2018-05-25T06:27:37.262Z,22.03
2018-05-25T06:30:04.559Z,21.00
2018-05-25T06:32:31.820Z,25.83
2018-05-25T06:34:59.111Z,26.43
2018-05-25T06:37:26.584Z,26.10
2018-05-25T06:39:53.871Z,22.40
2018-05-25T06:42:21.163Z,23.87
2018-05-25T06:44:48.433Z,24.63
2018-05-25T06:47:15.711Z,27.17
2018-05-25T06:49:42.988Z,33.00
2018-05-25T06:52:10.295Z,33.73
2018-05-25T06:54:37.559Z,36.37
2018-05-25T06:57:04.824Z,35.50
2018-05-25T06:59:32.113Z,48.77
2018-05-25T07:01:59.372Z,41.77
2018-05-25T07:04:26.667Z,46.20
2018-05-25T07:06:54.016Z,50.67
2018-05-25T07:09:21.278Z,46.33
2018-05-25T07:11:48.575Z,49.13
2018-05-25T07:14:15.836Z,45.97
2018-05-25T07:16:43.135Z,47.77
2018-05-25T07:19:10.391Z,47.83
2018-05-25T07:21:37.685Z,49.33
2018-05-25T07:24:04.952Z,46.43
2018-05-25T07:26:32.230Z,49.63
2018-05-25T07:28:59.514Z,44.77
2018-05-25T07:31:26.784Z,42.97
2018-05-25T07:33:54.106Z,42.27
2018-05-25T07:36:21.380Z,46.47
2018-05-25T07:38:48.667Z,44.50
2018-05-25T07:41:16.135Z,47.73
2018-05-25T07:43:43.424Z,54.80
2018-05-25T07:46:10.691Z,53.83
2018-05-25T07:48:37.989Z,50.90
2018-05-25T07:51:05.244Z,48.80
2018-05-25T07:53:32.537Z,51.90
2018-05-25T07:55:59.828Z,45.47
2018-05-25T07:58:27.109Z,45.50
2018-05-25T08:00:54.400Z,43.90
2018-05-25T08:03:21.682Z,43.93
2018-05-25T08:05:48.995Z,46.90
2018-05-25T08:08:16.278Z,49.97
2018-05-25T08:10:43.538Z,44.20
2018-05-25T08:13:10.827Z,39.67
2018-05-25T08:15:38.099Z,44.07
2018-05-25T08:18:05.389Z,41.93
2018-05-25T08:20:32.650Z,40.33
2018-05-25T08:22:59.935Z,45.27
2018-05-25T08:25:27.237Z,42.30
2018-05-25T08:27:54.500Z,42.17
2018-05-25T08:30:22.924Z,38.57
2018-05-25T08:32:50.134Z,39.00
2018-05-25T08:35:17.428Z,41.50
2018-05-25T08:37:44.707Z,39.80
2018-05-25T08:40:11.998Z,35.30
2018-05-25T08:42:39.298Z,39.63
2018-05-25T08:45:06.555Z,34.57
2018-05-25T08:47:33.824Z,35.87
2018-05-25T08:50:01.107Z,35.27
2018-05-25T08:52:28.403Z,34.83
2018-05-25T08:54:55.667Z,32.53
2018-05-25T08:57:22.974Z,35.77
2018-05-25T08:59:50.240Z,35.43
2018-05-25T09:02:17.500Z,39.20
2018-05-25T09:04:44.786Z,34.40
2018-05-25T09:07:12.096Z,31.40
2018-05-25T09:09:39.398Z,28.13
2018-05-25T09:12:06.710Z,27.87
2018-05-25T09:14:33.978Z,27.20
2018-05-25T09:17:01.268Z,26.83
2018-05-25T09:19:28.525Z,28.23
2018-05-25T09:21:55.822Z,30.40
2018-05-25T09:24:23.172Z,25.97
2018-05-25T09:26:50.463Z,33.13
2018-05-25T09:29:17.718Z,28.03
2018-05-25T09:31:45.025Z,22.80
2018-05-25T09:34:12.283Z,23.60
2018-05-25T09:36:39.551Z,23.77
2018-05-25T09:39:06.870Z,25.13
2018-05-25T09:41:34.152Z,25.87
2018-05-25T09:44:01.446Z,25.60
2018-05-25T09:46:28.711Z,22.93
2018-05-25T09:48:56.031Z,21.97
2018-05-25T09:51:23.266Z,21.30
2018-05-25T09:53:50.559Z,20.83
2018-05-25T09:56:17.876Z,23.87
2018-05-25T09:58:45.170Z,22.70
2018-05-25T10:01:12.441Z,20.87
2018-05-25T10:03:39.742Z,20.10
2018-05-25T10:06:07.039Z,20.73
2018-05-25T10:08:34.418Z,21.93
2018-05-25T10:11:01.735Z,22.13
2018-05-25T10:13:29.027Z,21.00
2018-05-25T10:15:56.315Z,20.87
2018-05-25T10:18:23.616Z,20.23
2018-05-25T10:20:50.885Z,21.10
2018-05-25T10:23:18.146Z,22.30
2018-05-25T10:28:18.983Z,19.57
2018-05-25T10:30:46.284Z,18.50
2018-05-25T10:33:13.665Z,19.30
2018-05-25T10:35:40.954Z,18.83
2018-05-25T10:38:08.223Z,21.33
2018-05-25T10:40:35.512Z,21.77
2018-05-25T10:43:02.860Z,22.90
2018-05-25T10:45:30.151Z,24.23
2018-05-25T10:47:57.448Z,21.07
2018-05-25T10:50:25.063Z,20.43
2018-05-25T10:52:52.480Z,23.13
2018-05-25T10:55:19.733Z,22.83
2018-05-25T10:57:47.020Z,23.60
2018-05-25T11:00:14.311Z,22.20
2018-05-25T11:02:41.601Z,24.20
2018-05-25T11:05:08.901Z,22.87
2018-05-25T11:07:36.167Z,23.10
2018-05-25T11:10:03.624Z,24.30
2018-05-25T11:12:30.868Z,23.57
2018-05-25T11:14:58.134Z,23.47
2018-05-25T11:17:25.422Z,22.57
2018-05-25T11:19:52.717Z,22.00
2018-05-25T11:22:20.019Z,20.87
2018-05-25T11:24:47.274Z,21.63
2018-05-25T11:27:14.567Z,20.73
2018-05-25T11:29:41.851Z,20.60
2018-05-25T11:32:09.120Z,19.63
2018-05-25T11:34:36.415Z,18.37
2018-05-25T11:37:03.708Z,20.33
2018-05-25T11:39:31.079Z,21.10
2018-05-25T11:41:58.911Z,20.77
2018-05-25T11:44:26.436Z,19.93
2018-05-25T11:46:53.732Z,19.63
2018-05-25T11:49:21.056Z,21.17
2018-05-25T11:51:48.966Z,19.93
2018-05-25T11:54:16.468Z,20.80
2018-05-25T11:56:43.825Z,21.40
2018-05-25T11:59:11.093Z,23.13
2018-05-25T12:01:38.450Z,21.13
2018-05-25T12:04:05.773Z,18.93
2018-05-25T12:06:33.079Z,22.93
2018-05-25T12:09:00.349Z,22.23
2018-05-25T12:11:27.647Z,20.70
2018-05-25T12:13:54.942Z,24.30
2018-05-25T12:16:22.319Z,22.70
2018-05-25T12:18:49.643Z,21.80
2018-05-25T12:21:16.999Z,21.10
2018-05-25T12:23:44.268Z,26.50
2018-05-25T12:26:11.613Z,23.83
2018-05-25T12:28:38.960Z,22.80
2018-05-25T12:31:06.227Z,23.67
2018-05-25T12:33:33.563Z,26.20
2018-05-25T12:36:01.032Z,25.03
2018-05-25T12:38:28.322Z,24.63
2018-05-25T12:40:55.581Z,23.50
2018-05-25T12:43:22.866Z,22.13
2018-05-25T12:45:50.132Z,23.10
2018-05-25T12:48:17.415Z,25.43
2018-05-25T12:50:44.667Z,24.50
2018-05-25T12:53:11.970Z,23.70
2018-05-25T12:55:39.235Z,22.90
2018-05-25T12:58:06.512Z,22.07
2018-05-25T13:00:34.692Z,21.33
2018-05-25T13:03:01.968Z,22.40
2018-05-25T13:05:29.256Z,21.07
2018-05-25T13:07:56.521Z,21.13
2018-05-25T13:10:23.821Z,20.17
2018-05-25T13:12:51.075Z,21.57
2018-05-25T13:15:18.421Z,22.00
2018-05-25T13:17:45.670Z,21.80
2018-05-25T13:20:12.959Z,21.90
2018-05-25T13:22:40.228Z,20.70
2018-05-25T13:25:07.522Z,20.03
2018-05-25T13:27:34.792Z,19.57
2018-05-25T13:30:02.085Z,20.00
2018-05-25T13:32:29.376Z,19.70
2018-05-25T13:34:56.666Z,19.07
2018-05-25T13:37:23.967Z,20.53
2018-05-25T13:39:51.268Z,20.37
2018-05-25T13:42:18.559Z,18.37
2018-05-25T13:44:45.859Z,19.30
2018-05-25T13:47:13.118Z,19.37
2018-05-25T13:49:40.386Z,18.33
2018-05-25T13:52:07.683Z,18.33
2018-05-25T13:54:34.964Z,18.27
2018-05-25T13:57:02.268Z,18.93
2018-05-25T13:59:29.592Z,19.47
2018-05-25T14:01:56.985Z,17.53
2018-05-25T14:04:24.274Z,18.70
2018-05-25T14:06:51.572Z,17.47
2018-05-25T14:09:18.856Z,19.57
2018-05-25T14:11:46.129Z,18.83
2018-05-25T14:14:13.411Z,18.63
2018-05-25T14:16:40.775Z,20.93
2018-05-25T14:19:08.133Z,19.10
2018-05-25T14:21:35.396Z,16.73
2018-05-25T14:24:02.737Z,16.80
2018-05-25T14:26:30.011Z,17.00
2018-05-25T14:28:57.266Z,16.97
2018-05-25T14:31:24.567Z,18.37
2018-05-25T14:33:51.857Z,15.67
2018-05-25T14:36:19.152Z,15.97
2018-05-25T14:38:46.467Z,14.00
2018-05-25T14:41:13.729Z,13.87
2018-05-25T14:43:41.079Z,12.43
2018-05-25T14:46:08.352Z,12.73
2018-05-25T14:48:35.657Z,13.17
2018-05-25T14:51:02.935Z,14.33
2018-05-25T14:53:30.225Z,14.47
2018-05-25T14:55:57.547Z,14.60
2018-05-25T14:58:24.847Z,15.70
2018-05-25T15:00:52.115Z,12.50
2018-05-25T15:03:19.395Z,13.13
2018-05-25T15:05:46.766Z,13.10
2018-05-25T15:08:14.035Z,12.80
2018-05-25T15:10:41.343Z,11.20
2018-05-25T15:13:08.635Z,11.47
2018-05-25T15:15:35.899Z,11.90
2018-05-25T15:18:03.190Z,12.53
2018-05-25T15:20:30.463Z,11.97
2018-05-25T15:22:57.751Z,11.10
2018-05-25T15:25:25.020Z,12.07
2018-05-25T15:27:52.312Z,11.33
2018-05-25T15:30:19.605Z,12.33
2018-05-25T15:32:46.891Z,12.70
2018-05-25T15:35:14.160Z,12.67
2018-05-25T15:37:41.464Z,10.73
2018-05-25T15:40:08.716Z,10.50
2018-05-25T15:42:36.013Z,10.03
2018-05-25T15:45:03.271Z,10.20
2018-05-25T15:47:30.564Z,11.67
2018-05-25T15:49:57.835Z,12.27
2018-05-25T15:52:25.127Z,11.00
2018-05-25T15:54:52.384Z,9.67
2018-05-25T15:57:19.667Z,9.97
2018-05-25T15:59:46.958Z,10.50
2018-05-25T16:02:14.274Z,10.67
2018-05-25T16:04:41.498Z,10.43
2018-05-25T16:07:08.784Z,11.60
2018-05-25T16:09:36.039Z,9.90
2018-05-25T16:12:03.316Z,9.90
2018-05-25T16:14:30.596Z,10.37
2018-05-25T16:16:57.885Z,10.40
2018-05-25T16:19:25.139Z,12.90
2018-05-25T16:21:52.423Z,10.87
2018-05-25T16:24:19.681Z,10.77
2018-05-25T16:26:47.047Z,11.80
2018-05-25T16:29:14.343Z,11.23
2018-05-25T16:31:41.639Z,12.10
2018-05-25T16:34:08.940Z,11.43
2018-05-25T16:36:36.213Z,12.23
2018-05-25T16:39:03.491Z,11.47
2018-05-25T16:41:30.755Z,12.00
2018-05-25T16:43:58.055Z,10.30
2018-05-25T16:46:25.322Z,11.47
2018-05-25T16:48:52.582Z,11.80
2018-05-25T16:51:19.886Z,14.13
2018-05-25T16:53:47.139Z,11.47
2018-05-25T16:56:14.408Z,11.30
2018-05-25T16:58:41.695Z,11.33
2018-05-25T17:01:08.947Z,10.77
2018-05-25T17:03:36.268Z,10.97
2018-05-25T17:06:03.515Z,12.00
2018-05-25T17:08:30.802Z,10.57
2018-05-25T17:10:58.059Z,11.10
2018-05-25T17:13:25.375Z,13.53
2018-05-25T17:15:52.628Z,9.97
2018-05-25T17:18:19.878Z,9.03
2018-05-25T17:20:47.285Z,9.63
2018-05-25T17:23:14.591Z,9.73
2018-05-25T17:25:41.882Z,10.53
2018-05-25T17:28:09.139Z,9.50
2018-05-25T17:30:36.404Z,10.20
2018-05-25T17:33:03.695Z,13.17
2018-05-25T17:35:30.943Z,9.73
2018-05-25T17:37:58.224Z,10.40
2018-05-25T17:40:25.491Z,9.57
2018-05-25T17:42:52.751Z,9.60
2018-05-25T17:45:20.044Z,11.87
2018-05-25T17:47:47.301Z,9.00
2018-05-25T17:50:14.555Z,10.30
2018-05-25T17:52:41.836Z,9.13
2018-05-25T17:55:09.099Z,10.13
2018-05-25T17:57:36.396Z,10.03
2018-05-25T18:00:03.643Z,9.70
2018-05-25T18:02:30.913Z,10.20
2018-05-25T18:04:58.198Z,11.33
2018-05-25T18:07:25.447Z,9.00
2018-05-25T18:09:52.816Z,10.63
2018-05-25T18:12:20.068Z,8.83
2018-05-25T18:14:47.346Z,9.80
2018-05-25T18:17:14.718Z,9.60
2018-05-25T18:19:41.967Z,9.17
2018-05-25T18:22:09.256Z,11.60
2018-05-25T18:24:36.515Z,10.17
2018-05-25T18:27:03.819Z,13.07
2018-05-25T18:29:31.147Z,10.17
2018-05-25T18:31:58.403Z,9.63
2018-05-25T18:34:25.759Z,12.37
2018-05-25T18:36:53.257Z,9.83
2018-05-25T18:39:20.492Z,10.50
2018-05-25T18:41:47.779Z,10.50
2018-05-25T18:44:15.069Z,10.87
2018-05-25T18:46:42.326Z,10.40
2018-05-25T18:49:09.587Z,13.77
2018-05-25T18:51:36.855Z,8.90
2018-05-25T18:54:10.481Z,9.87
2018-05-25T18:56:40.023Z,9.70
2018-05-25T18:59:10.311Z,10.17
2018-05-25T19:01:37.796Z,9.93
2018-05-25T19:04:05.056Z,10.33
2018-05-25T19:06:32.334Z,8.80
2018-05-25T19:08:59.591Z,12.17
2018-05-25T19:11:26.872Z,9.43
2018-05-25T19:13:54.149Z,9.30
2018-05-25T19:16:21.432Z,12.17
2018-05-25T19:18:48.732Z,11.40
2018-05-25T19:21:15.996Z,10.70
2018-05-25T19:23:43.243Z,9.83
2018-05-25T19:26:10.523Z,10.03
2018-05-25T19:28:37.778Z,9.83
2018-05-25T19:31:05.056Z,15.27
2018-05-25T19:33:32.315Z,8.77
2018-05-25T19:35:59.637Z,9.87
2018-05-25T19:38:26.911Z,9.23
2018-05-25T19:40:54.190Z,11.27
2018-05-25T19:43:21.451Z,10.27
2018-05-25T19:45:48.751Z,10.60
2018-05-25T19:48:16.024Z,9.20
2018-05-25T19:50:43.315Z,9.27
2018-05-25T19:53:10.571Z,8.83
2018-05-25T19:55:37.827Z,8.77
2018-05-25T19:58:05.131Z,9.50
2018-05-25T20:00:32.350Z,10.70
2018-05-25T20:02:59.634Z,11.97
2018-05-25T20:05:26.935Z,9.50
2018-05-25T20:07:54.223Z,14.93
2018-05-25T20:10:21.502Z,9.20
2018-05-25T20:12:48.763Z,10.63
2018-05-25T20:15:16.052Z,10.70
2018-05-25T20:17:43.332Z,11.20
2018-05-25T20:20:10.582Z,9.33
2018-05-25T20:22:37.911Z,9.30
2018-05-25T20:25:05.167Z,9.80
2018-05-25T20:27:32.525Z,10.90
2018-05-25T20:29:59.782Z,10.57
2018-05-25T20:32:27.052Z,9.90
2018-05-25T20:34:54.303Z,9.60
2018-05-25T20:37:21.579Z,9.70
2018-05-25T20:39:48.835Z,10.63
2018-05-25T20:42:16.121Z,9.87
2018-05-25T20:44:43.399Z,7.90
2018-05-25T20:47:10.683Z,10.13
2018-05-25T20:49:38.011Z,9.30
2018-05-25T20:52:05.260Z,8.77
2018-05-25T20:54:32.539Z,9.20
2018-05-25T20:56:59.789Z,9.03
2018-05-25T20:59:27.074Z,9.93
2018-05-25T21:01:56.002Z,11.60
2018-05-25T21:04:23.638Z,9.80
2018-05-25T21:06:50.932Z,9.40
2018-05-25T21:09:18.796Z,10.47
2018-05-25T21:11:46.072Z,9.27
2018-05-25T21:14:13.346Z,11.20
2018-05-25T21:16:40.626Z,8.83
2018-05-25T21:19:07.883Z,9.13
2018-05-25T21:21:35.178Z,9.23
2018-05-25T21:24:02.434Z,9.60
2018-05-25T21:26:29.697Z,12.03
2018-05-25T21:28:57.435Z,8.37
2018-05-25T21:31:24.699Z,10.50
2018-05-25T21:33:51.983Z,10.43
2018-05-25T21:36:19.310Z,8.90
2018-05-25T21:38:46.560Z,7.97
2018-05-25T21:41:13.844Z,13.87
2018-05-25T21:43:41.103Z,8.90
2018-05-25T21:46:08.355Z,8.67
2018-05-25T21:48:35.643Z,9.37
2018-05-25T21:51:02.910Z,8.20
2018-05-25T21:53:30.177Z,8.07
2018-05-25T21:55:57.471Z,8.10
2018-05-25T21:58:24.727Z,9.17
2018-05-25T22:00:51.993Z,10.50
2018-05-25T22:03:19.279Z,9.70
2018-05-25T22:05:46.567Z,10.37
2018-05-25T22:08:13.903Z,9.30
2018-05-25T22:10:41.158Z,10.63
2018-05-25T22:13:08.446Z,9.80
2018-05-25T22:15:35.707Z,11.20
2018-05-25T22:18:02.997Z,8.57
2018-05-25T22:20:30.275Z,8.17
2018-05-25T22:22:57.557Z,7.83
2018-05-25T22:25:24.803Z,7.10
2018-05-25T22:27:52.088Z,8.83
2018-05-25T22:30:19.388Z,8.40
2018-05-25T22:32:46.665Z,8.07
2018-05-25T22:35:13.940Z,9.07
2018-05-25T22:37:41.195Z,7.37
2018-05-25T22:40:08.474Z,7.80
2018-05-25T22:42:41.560Z,10.03
2018-05-25T22:45:21.030Z,8.37
2018-05-25T22:48:00.367Z,11.63
2018-05-25T22:50:39.681Z,8.10
2018-05-25T22:53:18.522Z,9.73
2018-05-25T22:55:45.570Z,8.63
2018-05-25T22:58:12.840Z,11.20
2018-05-25T23:00:40.097Z,9.73
2018-05-25T23:03:07.449Z,8.43
2018-05-25T23:05:34.702Z,8.90
2018-05-25T23:08:01.970Z,10.57
2018-05-25T23:10:29.307Z,8.50
2018-05-25T23:12:56.584Z,10.67
2018-05-25T23:15:23.849Z,10.07
2018-05-25T23:17:51.115Z,10.30
2018-05-25T23:20:18.370Z,7.90
2018-05-25T23:22:45.648Z,11.43
2018-05-25T23:25:12.920Z,11.57
2018-05-25T23:27:40.186Z,15.60
2018-05-25T23:30:07.452Z,8.07
2018-05-25T23:32:34.721Z,9.70
2018-05-25T23:35:01.975Z,8.70
2018-05-25T23:37:29.296Z,14.50
2018-05-25T23:39:56.552Z,9.27
2018-05-25T23:42:23.910Z,9.17
2018-05-25T23:44:51.159Z,13.20
2018-05-25T23:47:18.439Z,9.67
2018-05-25T23:49:45.696Z,10.77
2018-05-25T23:52:12.971Z,8.77
2018-05-25T23:54:40.229Z,9.40
2018-05-25T23:57:07.495Z,10.87
2018-05-25T23:59:34.753Z,8.80
